Time;durP1;ratioP1;P1;durP2;ratioP2;P2;SDS_P1;SDS_P2;PMS_P1;PMS_P2;Temp;Humidity;BMP_temperature;BMP_pressure;BME280_temperature;BME280_humidity;BME280_pressure;Samples;Min_cycle;Max_cycle;Signal;HPM_P1;HPM_P2
2023/01/10 00:02:02;;;;;;;26.23;3.93;;;6.00;99.90;;;;;;5073373;28;20279;-83
2023/01/10 00:04:28;;;;;;;25.00;4.23;;;5.90;99.90;;;;;;5073397;28;20396;-83
2023/01/10 00:06:55;;;;;;;22.98;3.78;;;6.00;99.90;;;;;;5076956;28;20190;-83
2023/01/10 00:09:21;;;;;;;26.02;4.13;;;6.00;99.90;;;;;;5077559;28;20063;-83
2023/01/10 00:14:34;;;;;;;24.17;4.33;;;6.10;99.90;;;;;;5077921;28;20739;-83
2023/01/10 00:17:03;;;;;;;21.77;3.00;;;6.10;99.90;;;;;;5059328;28;20291;-83
2023/01/10 00:19:29;;;;;;;26.27;3.47;;;6.10;99.90;;;;;;5077284;28;20290;-83
2023/01/10 00:22:03;;;;;;;22.23;3.90;;;6.10;99.90;;;;;;5077523;28;20282;-83
2023/01/10 00:24:29;;;;;;;23.07;3.60;;;6.20;99.90;;;;;;5077160;28;20275;-83
2023/01/10 00:26:54;;;;;;;20.10;3.80;;;6.20;99.90;;;;;;5077125;28;20290;-83
2023/01/10 00:29:25;;;;;;;19.97;3.30;;;6.20;99.90;;;;;;5059220;28;20131;-83
2023/01/10 00:31:50;;;;;;;28.17;4.27;;;6.20;99.90;;;;;;5059851;28;20044;-83
2023/01/10 00:34:16;;;;;;;27.43;4.00;;;6.20;99.90;;;;;;5059440;28;20382;-83
2023/01/10 00:36:44;;;;;;;25.85;4.13;;;6.30;99.90;;;;;;5059498;28;20049;-83
2023/01/10 00:39:10;;;;;;;29.40;4.20;;;6.30;99.90;;;;;;5076827;28;20055;-83
2023/01/10 00:44:20;;;;;;;25.43;4.43;;;6.30;99.90;;;;;;5076774;28;20131;-83
2023/01/10 00:46:45;;;;;;;27.93;3.67;;;6.30;99.90;;;;;;5076681;28;20315;-84
2023/01/10 00:49:14;;;;;;;17.63;3.37;;;6.40;99.90;;;;;;5076644;28;20106;-83
2023/01/10 00:51:39;;;;;;;29.27;4.47;;;6.40;99.90;;;;;;5076498;28;20107;-83
2023/01/10 00:54:05;;;;;;;20.93;4.17;;;6.40;99.90;;;;;;5077181;28;20310;-83
2023/01/10 00:56:31;;;;;;;20.80;3.03;;;6.40;99.90;;;;;;5076500;28;20055;-83
2023/01/10 00:58:56;;;;;;;24.00;3.60;;;6.40;99.90;;;;;;5043003;28;20049;-83
2023/01/10 01:01:22;;;;;;;20.00;3.30;;;6.40;99.90;;;;;;5058986;28;20045;-83
2023/01/10 01:03:48;;;;;;;18.30;3.53;;;6.40;99.90;;;;;;5076420;28;20473;-83
2023/01/10 01:06:13;;;;;;;20.90;3.40;;;6.40;99.90;;;;;;5076375;28;20059;-83
2023/01/10 01:08:39;;;;;;;30.23;4.73;;;6.40;99.90;;;;;;5041831;28;20194;-83
2023/01/10 01:11:05;;;;;;;24.47;4.10;;;6.40;99.90;;;;;;5058343;28;20040;-84
2023/01/10 01:13:30;;;;;;;22.67;4.30;;;6.40;99.90;;;;;;5076189;28;20049;-84
2023/01/10 01:15:58;;;;;;;29.43;4.30;;;6.40;99.90;;;;;;5075654;28;20048;-84
2023/01/10 01:18:24;;;;;;;28.83;4.50;;;6.40;99.90;;;;;;5058511;28;20408;-84
2023/01/10 01:20:55;;;;;;;19.60;4.20;;;6.40;99.90;;;;;;5041495;28;20279;-85
2023/01/10 01:23:22;;;;;;;25.97;4.07;;;6.40;99.90;;;;;;5058357;28;20279;-84
2023/01/10 01:25:54;;;;;;;16.90;3.40;;;6.40;99.90;;;;;;5076018;28;20400;-84
2023/01/10 01:28:23;;;;;;;20.17;3.42;;;6.40;99.90;;;;;;5075973;28;20290;-84
2023/01/10 01:30:49;;;;;;;21.97;3.93;;;6.30;99.90;;;;;;5077115;28;20058;-86
2023/01/10 01:33:15;;;;;;;23.80;3.90;;;6.40;99.90;;;;;;5075606;28;20377;-84
2023/01/10 01:35:46;;;;;;;29.10;4.47;;;6.30;99.90;;;;;;5075845;28;20286;-84
2023/01/10 01:38:13;;;;;;;27.37;5.07;;;6.30;99.90;;;;;;5042271;28;20283;-84
2023/01/10 01:40:40;;;;;;;26.67;4.07;;;6.40;99.90;;;;;;5058112;28;20291;-84
2023/01/10 01:43:20;;;;;;;27.47;4.57;;;6.30;99.90;;;;;;5075638;28;20290;-84
2023/01/10 01:45:46;;;;;;;20.33;3.70;;;6.40;99.90;;;;;;5076270;28;20360;-84
2023/01/10 01:48:21;;;;;;;14.20;2.90;;;6.40;99.90;;;;;;5057884;28;20689;-84
2023/01/10 01:51:11;;;;;;;19.27;3.83;;;6.40;99.90;;;;;;5076104;28;20299;-84
2023/01/10 01:53:45;;;;;;;19.40;2.87;;;6.40;99.90;;;;;;5076062;28;20084;-84
2023/01/10 01:56:20;;;;;;;14.17;2.70;;;6.40;99.90;;;;;;5076299;28;20346;-84
2023/01/10 01:58:52;;;;;;;16.05;3.03;;;6.40;99.90;;;;;;5076221;28;20283;-84
2023/01/10 02:01:19;;;;;;;17.50;2.83;;;6.40;99.90;;;;;;5057731;28;20120;-84
2023/01/10 02:03:50;;;;;;;18.80;3.03;;;6.40;99.90;;;;;;5075295;28;20044;-84
2023/01/10 02:06:18;;;;;;;16.43;2.90;;;6.40;99.90;;;;;;5057438;28;20286;-84
2023/01/10 02:08:49;;;;;;;20.63;3.17;;;6.40;99.90;;;;;;5040710;28;20888;-83
2023/01/10 02:11:15;;;;;;;18.20;3.70;;;6.40;99.90;;;;;;5040649;28;20847;-84
2023/01/10 02:13:43;;;;;;;23.27;3.83;;;6.40;99.90;;;;;;5075118;28;20347;-84
2023/01/10 02:16:09;;;;;;;20.67;3.90;;;6.40;99.90;;;;;;5075042;28;20287;-84
2023/01/10 02:18:37;;;;;;;23.17;3.77;;;6.40;99.90;;;;;;5057169;28;20366;-84
2023/01/10 02:21:21;;;;;;;17.90;3.03;;;6.50;99.90;;;;;;5074679;28;20801;-84
2023/01/10 02:24:14;;;;;;;18.77;3.47;;;6.50;99.90;;;;;;5057220;28;20295;-84
2023/01/10 02:27:07;;;;;;;21.37;3.80;;;6.50;99.90;;;;;;5075690;28;20282;-84
2023/01/10 02:29:59;;;;;;;21.67;4.00;;;6.60;99.90;;;;;;5074005;28;20283;-84
2023/01/10 02:32:46;;;;;;;28.43;4.43;;;6.60;99.90;;;;;;5075613;28;20593;-84
2023/01/10 02:35:36;;;;;;;27.33;4.33;;;6.60;99.90;;;;;;5074951;28;20366;-84
2023/01/10 02:38:11;;;;;;;22.83;4.17;;;6.60;99.90;;;;;;5074610;28;20705;-84
2023/01/10 02:41:08;;;;;;;23.67;3.47;;;6.60;99.90;;;;;;5074637;28;20320;-83
2023/01/10 02:43:44;;;;;;;27.20;4.27;;;6.60;99.90;;;;;;4985685;28;20051;-82
2023/01/10 02:46:24;;;;;;;21.23;4.00;;;6.70;99.90;;;;;;5057362;28;20794;-83
2023/01/10 02:48:54;;;;;;;24.40;3.70;;;6.70;99.90;;;;;;5074398;28;20291;-82
2023/01/10 02:51:28;;;;;;;23.80;4.13;;;6.70;99.90;;;;;;5074784;28;20303;-82
2023/01/10 02:53:59;;;;;;;22.10;4.10;;;6.60;99.90;;;;;;5074651;28;20282;-82
2023/01/10 02:56:36;;;;;;;27.53;4.53;;;6.70;99.90;;;;;;5056525;28;20294;-82
2023/01/10 02:59:10;;;;;;;25.13;5.10;;;6.60;99.90;;;;;;5074720;28;20283;-82
2023/01/10 03:01:51;;;;;;;24.67;4.73;;;6.60;99.90;;;;;;5056884;28;20301;-82
2023/01/10 03:04:31;;;;;;;21.83;4.00;;;6.70;99.90;;;;;;5074066;28;20289;-82
2023/01/10 03:07:26;;;;;;;19.17;3.77;;;6.70;99.90;;;;;;5074960;28;20584;-82
2023/01/10 03:09:58;;;;;;;20.05;4.15;;;6.70;99.90;;;;;;5056493;28;20385;-82
2023/01/10 03:12:32;;;;;;;19.87;3.73;;;6.70;99.90;;;;;;5074768;28;20102;-82
2023/01/10 03:14:59;;;;;;;14.67;3.53;;;6.70;99.90;;;;;;5074290;28;20290;-82
2023/01/10 03:17:29;;;;;;;20.90;3.60;;;6.70;99.90;;;;;;5056185;28;20286;-82
2023/01/10 03:19:59;;;;;;;22.30;3.60;;;6.70;99.90;;;;;;5073883;28;20291;-82
2023/01/10 03:22:28;;;;;;;28.10;4.17;;;6.70;99.90;;;;;;5074369;28;20275;-82
2023/01/10 03:24:56;;;;;;;25.80;4.30;;;6.70;99.90;;;;;;5056550;28;20297;-83
2023/01/10 03:27:56;;;;;;;22.13;4.27;;;6.80;99.90;;;;;;5056586;28;20687;-83
2023/01/10 03:30:49;;;;;;;26.07;4.07;;;6.70;99.90;;;;;;5074499;28;20299;-84
2023/01/10 03:33:19;;;;;;;23.40;4.80;;;6.70;99.90;;;;;;5073966;28;20294;-84
2023/01/10 03:35:48;;;;;;;30.43;4.30;;;6.80;99.90;;;;;;5073716;28;20407;-83
2023/01/10 03:38:28;;;;;;;20.03;3.83;;;6.70;99.90;;;;;;5073638;28;20785;-83
2023/01/10 03:41:03;;;;;;;28.07;4.00;;;6.70;99.90;;;;;;5074555;28;20645;-83
2023/01/10 03:47:04;;;;;;;19.13;3.57;;;6.60;99.90;;;;;;4972680;28;20050;-82
2023/01/10 03:49:33;;;;;;;22.10;4.47;;;6.60;99.90;;;;;;4973206;28;20286;-82
2023/01/10 03:52:00;;;;;;;21.30;4.30;;;6.60;99.90;;;;;;5042604;28;20314;-82
2023/01/10 03:54:26;;;;;;;27.70;5.13;;;6.60;99.90;;;;;;5074549;28;20295;-82
2023/01/10 03:56:52;;;;;;;24.80;3.73;;;6.50;99.90;;;;;;5073731;28;20283;-82
2023/01/10 03:59:25;;;;;;;31.40;3.93;;;6.50;99.90;;;;;;5073413;28;20769;-83
2023/01/10 04:01:52;;;;;;;30.93;4.40;;;6.60;99.90;;;;;;5073657;28;20045;-82
2023/01/10 04:04:18;;;;;;;28.07;4.20;;;6.60;99.90;;;;;;5073306;28;20380;-83
2023/01/10 04:06:44;;;;;;;24.20;4.20;;;6.60;99.90;;;;;;5073325;28;20294;-83
2023/01/10 04:09:10;;;;;;;31.37;5.23;;;6.50;99.90;;;;;;5073417;28;20172;-83
2023/01/10 04:11:36;;;;;;;27.13;4.00;;;6.50;99.90;;;;;;5073214;28;20727;-82
2023/01/10 04:14:02;;;;;;;23.83;4.27;;;6.60;99.90;;;;;;5055724;28;20384;-82
2023/01/10 04:16:27;;;;;;;24.70;4.00;;;6.60;99.90;;;;;;5073346;28;20397;-83
2023/01/10 04:18:53;;;;;;;29.83;4.50;;;6.60;99.90;;;;;;5073287;28;20048;-82
2023/01/10 04:21:19;;;;;;;29.30;4.73;;;6.60;99.90;;;;;;5073206;28;20568;-82
2023/01/10 04:23:45;;;;;;;30.50;4.57;;;6.60;99.90;;;;;;5055461;28;20060;-82
2023/01/10 04:26:10;;;;;;;25.67;3.77;;;6.60;99.90;;;;;;5073152;28;20084;-83
2023/01/10 04:28:36;;;;;;;22.53;4.63;;;6.60;99.90;;;;;;5056311;28;20106;-84
2023/01/10 04:31:02;;;;;;;20.47;4.00;;;6.60;99.90;;;;;;5073880;28;20045;-83
2023/01/10 04:33:28;;;;;;;24.90;3.67;;;6.60;99.90;;;;;;5073903;28;20398;-84
2023/01/10 04:35:54;;;;;;;22.03;3.57;;;6.60;99.90;;;;;;5073040;28;20048;-84
2023/01/10 04:38:20;;;;;;;15.73;4.23;;;6.60;99.90;;;;;;5073115;28;20088;-83
2023/01/10 04:40:55;;;;;;;25.70;4.27;;;6.60;99.90;;;;;;5055162;28;20636;-83
2023/01/10 04:43:22;;;;;;;19.27;3.80;;;6.60;99.90;;;;;;5055664;28;20052;-83
2023/01/10 04:45:47;;;;;;;26.47;4.27;;;6.60;99.90;;;;;;5055083;28;20291;-83
2023/01/10 04:48:13;;;;;;;26.63;4.53;;;6.60;99.90;;;;;;5073544;28;20336;-83
2023/01/10 04:50:39;;;;;;;25.30;3.90;;;6.70;99.90;;;;;;5039404;28;20472;-84
2023/01/10 04:53:05;;;;;;;23.23;4.50;;;6.70;99.90;;;;;;5076503;28;20048;-83
2023/01/10 04:55:31;;;;;;;25.30;4.13;;;6.70;99.90;;;;;;5059054;28;20049;-83
2023/01/10 04:57:57;;;;;;;23.10;4.40;;;6.60;99.90;;;;;;5076582;28;20044;-83
2023/01/10 05:00:23;;;;;;;16.57;3.53;;;6.70;99.90;;;;;;5076496;28;20754;-84
2023/01/10 05:02:53;;;;;;;14.30;2.90;;;6.70;99.90;;;;;;5058787;28;20164;-84
2023/01/10 05:05:19;;;;;;;20.23;4.17;;;6.70;99.90;;;;;;5077234;28;20117;-84
2023/01/10 05:07:46;;;;;;;16.00;3.30;;;6.70;99.90;;;;;;5058466;28;20791;-84
2023/01/10 05:10:12;;;;;;;18.53;3.50;;;6.70;99.90;;;;;;5076619;28;20053;-83
2023/01/10 05:12:38;;;;;;;14.77;2.73;;;6.60;99.90;;;;;;5058627;28;20282;-84
2023/01/10 05:15:04;;;;;;;19.30;3.03;;;6.70;99.90;;;;;;5058414;28;20293;-84
2023/01/10 05:17:30;;;;;;;19.93;3.77;;;6.60;99.90;;;;;;5076196;28;20041;-84
2023/01/10 05:19:55;;;;;;;18.40;2.63;;;6.60;99.90;;;;;;5058788;28;20318;-84
2023/01/10 05:22:21;;;;;;;14.03;2.80;;;6.70;99.90;;;;;;5076097;28;20114;-84
2023/01/10 05:24:47;;;;;;;15.50;3.10;;;6.70;99.90;;;;;;5041815;28;20126;-83
2023/01/10 05:27:13;;;;;;;20.97;4.17;;;6.70;99.90;;;;;;5059171;28;20052;-83
2023/01/10 05:29:38;;;;;;;19.27;3.07;;;6.60;99.90;;;;;;5076023;28;20044;-83
2023/01/10 05:32:04;;;;;;;15.20;2.67;;;6.60;99.90;;;;;;5075874;28;20044;-83
2023/01/10 05:34:30;;;;;;;15.63;3.20;;;6.60;99.90;;;;;;5076394;28;20153;-83
2023/01/10 05:36:55;;;;;;;12.33;2.50;;;6.60;99.90;;;;;;5076160;28;20052;-83
2023/01/10 05:39:21;;;;;;;14.83;3.27;;;6.60;99.90;;;;;;5041626;28;20044;-84
2023/01/10 05:41:47;;;;;;;14.63;2.90;;;6.60;99.90;;;;;;5075776;28;20045;-83
2023/01/10 05:44:12;;;;;;;16.80;3.17;;;6.60;99.90;;;;;;5041475;28;20048;-83
2023/01/10 05:46:38;;;;;;;15.50;3.40;;;6.70;99.90;;;;;;5058579;28;20076;-83
2023/01/10 05:49:04;;;;;;;12.20;2.57;;;6.70;99.90;;;;;;5058834;28;20059;-83
2023/01/10 05:51:29;;;;;;;15.70;2.47;;;6.70;99.90;;;;;;5076048;28;20044;-83
2023/01/10 05:53:57;;;;;;;13.90;2.37;;;6.70;99.90;;;;;;5075563;28;20083;-83
2023/01/10 05:56:23;;;;;;;17.10;3.20;;;6.70;99.90;;;;;;5076287;28;20358;-83
2023/01/10 05:58:49;;;;;;;14.70;2.40;;;6.70;99.90;;;;;;5058480;28;20603;-83
2023/01/10 06:01:15;;;;;;;12.37;2.43;;;6.70;99.90;;;;;;5075337;28;20361;-83
2023/01/10 06:03:41;;;;;;;9.07;2.10;;;6.70;99.90;;;;;;5075186;28;20755;-83
2023/01/10 06:06:07;;;;;;;16.53;2.87;;;6.70;99.90;;;;;;5057433;28;20324;-83
2023/01/10 06:08:35;;;;;;;16.43;2.93;;;6.70;99.90;;;;;;5057198;28;20052;-83
2023/01/10 06:11:04;;;;;;;10.30;2.00;;;6.70;99.90;;;;;;5057649;28;20404;-83
2023/01/10 06:13:30;;;;;;;14.07;2.27;;;6.60;99.90;;;;;;5075119;28;20275;-83
2023/01/10 06:15:56;;;;;;;11.63;2.63;;;6.60;99.90;;;;;;5057212;28;20412;-83
2023/01/10 06:18:22;;;;;;;17.13;3.13;;;6.50;99.90;;;;;;5057371;28;20057;-84
2023/01/10 06:20:48;;;;;;;15.77;2.40;;;6.50;99.90;;;;;;5075027;28;20072;-83
2023/01/10 06:23:14;;;;;;;14.27;2.50;;;6.40;99.90;;;;;;5057125;28;20048;-83
2023/01/10 06:25:40;;;;;;;14.37;2.57;;;6.30;99.90;;;;;;5057244;28;20076;-83
2023/01/10 06:28:11;;;;;;;16.80;3.10;;;6.20;99.90;;;;;;5057278;28;20294;-83
2023/01/10 06:30:40;;;;;;;15.23;2.70;;;6.20;99.90;;;;;;5074719;28;20310;-83
2023/01/10 06:33:08;;;;;;;23.53;3.77;;;6.20;99.90;;;;;;5074751;28;20275;-83
2023/01/10 06:35:34;;;;;;;20.57;4.83;;;6.10;99.90;;;;;;5057760;28;20290;-83
2023/01/10 06:38:00;;;;;;;23.90;3.35;;;6.10;99.90;;;;;;5057423;28;20290;-83
2023/01/10 06:40:27;;;;;;;23.40;3.90;;;6.10;99.90;;;;;;5074563;28;20040;-84
2023/01/10 06:42:53;;;;;;;23.15;3.70;;;6.10;99.90;;;;;;5074511;28;20044;-83
2023/01/10 06:45:19;;;;;;;23.50;4.30;;;6.20;99.90;;;;;;5040259;28;20143;-84
2023/01/10 06:47:44;;;;;;;31.57;5.33;;;6.20;99.90;;;;;;5056528;28;20052;-83
2023/01/10 06:50:11;;;;;;;29.50;5.90;;;6.20;99.90;;;;;;5056751;28;20135;-83
2023/01/10 06:52:38;;;;;;;27.53;4.60;;;6.20;99.90;;;;;;5056695;28;20059;-84
2023/01/10 06:55:05;;;;;;;38.57;6.00;;;6.30;99.90;;;;;;5040456;28;20287;-84
2023/01/10 06:57:34;;;;;;;26.52;5.03;;;6.30;99.90;;;;;;5074240;28;20634;-84
2023/01/10 07:00:02;;;;;;;29.23;5.03;;;6.30;99.90;;;;;;5056592;28;20048;-84
2023/01/10 07:02:28;;;;;;;24.87;4.83;;;6.30;99.90;;;;;;5074161;28;20045;-84
2023/01/10 07:04:54;;;;;;;33.97;5.60;;;6.30;99.90;;;;;;5074184;28;20329;-84
2023/01/10 07:07:19;;;;;;;38.63;6.40;;;6.40;99.90;;;;;;5056108;28;20080;-84
2023/01/10 07:09:46;;;;;;;35.80;5.90;;;6.30;99.90;;;;;;5074583;28;20055;-84
2023/01/10 07:12:12;;;;;;;35.20;6.00;;;6.40;99.90;;;;;;5039971;28;20383;-84
2023/01/10 07:14:37;;;;;;;33.80;5.73;;;6.40;99.90;;;;;;5055828;28;20283;-84
2023/01/10 07:17:03;;;;;;;36.33;5.77;;;6.40;99.90;;;;;;5056223;28;20097;-84
2023/01/10 07:19:29;;;;;;;31.80;5.67;;;6.50;99.90;;;;;;5073523;28;20051;-85
2023/01/10 07:21:54;;;;;;;32.50;5.77;;;6.50;99.90;;;;;;5074328;28;20048;-84
2023/01/10 07:24:20;;;;;;;31.00;5.13;;;6.50;99.90;;;;;;5073848;28;20055;-83
2023/01/10 07:26:46;;;;;;;34.50;4.83;;;6.50;99.90;;;;;;5056941;28;20491;-84
2023/01/10 07:29:12;;;;;;;26.07;4.80;;;6.50;99.90;;;;;;5056456;28;20186;-84
2023/01/10 07:31:37;;;;;;;37.30;5.53;;;6.60;99.90;;;;;;5073889;28;20037;-84
2023/01/10 07:34:03;;;;;;;34.90;4.57;;;6.60;99.90;;;;;;5056898;28;20040;-85
2023/01/10 07:36:29;;;;;;;32.67;5.80;;;6.60;99.90;;;;;;5074208;28;20044;-85
2023/01/10 07:38:54;;;;;;;18.97;4.17;;;6.60;99.90;;;;;;5040264;28;20102;-84
2023/01/10 07:41:20;;;;;;;31.23;5.70;;;6.60;99.90;;;;;;5073307;28;20048;-84
2023/01/10 07:43:47;;;;;;;31.17;4.87;;;6.50;99.90;;;;;;5056002;28;20095;-84
2023/01/10 07:46:13;;;;;;;27.67;4.90;;;6.60;99.90;;;;;;5074438;28;20093;-84
2023/01/10 07:48:40;;;;;;;36.27;4.97;;;6.50;99.90;;;;;;5073554;28;20301;-84
2023/01/10 07:51:06;;;;;;;29.65;4.90;;;6.50;99.90;;;;;;5073520;28;20479;-84
2023/01/10 07:53:32;;;;;;;25.30;4.83;;;6.50;99.90;;;;;;5074024;28;20052;-84
2023/01/10 07:55:59;;;;;;;32.07;5.43;;;6.40;99.90;;;;;;5039165;28;20044;-84
2023/01/10 07:58:26;;;;;;;28.50;4.73;;;6.40;99.90;;;;;;5073466;28;20131;-84
2023/01/10 08:00:57;;;;;;;34.47;5.47;;;6.40;99.90;;;;;;5055754;28;20282;-84
2023/01/10 08:03:23;;;;;;;30.77;5.10;;;6.40;99.90;;;;;;5073438;28;20329;-84
2023/01/10 08:05:49;;;;;;;32.03;5.07;;;6.30;99.90;;;;;;5055661;28;20060;-84
2023/01/10 08:08:16;;;;;;;31.97;4.87;;;6.30;99.90;;;;;;5055288;28;20290;-84
2023/01/10 08:10:42;;;;;;;23.77;4.87;;;6.30;99.90;;;;;;5073792;28;20141;-84
2023/01/10 08:13:07;;;;;;;30.53;5.90;;;6.30;99.90;;;;;;5073304;28;20325;-84
2023/01/10 08:15:33;;;;;;;34.03;5.57;;;6.20;99.90;;;;;;5055225;28;20041;-85
2023/01/10 08:18:02;;;;;;;36.40;5.23;;;6.20;99.90;;;;;;5073219;28;20059;-86
2023/01/10 08:20:28;;;;;;;36.47;5.37;;;6.20;99.90;;;;;;5055504;28;20495;-83
2023/01/10 08:22:57;;;;;;;35.80;4.97;;;6.20;99.90;;;;;;5039204;28;20294;-85
2023/01/10 08:25:23;;;;;;;33.87;6.60;;;6.20;99.90;;;;;;5073844;28;20290;-82
2023/01/10 08:27:49;;;;;;;33.90;5.73;;;6.10;99.90;;;;;;5076126;28;20790;-79
2023/01/10 08:30:15;;;;;;;32.83;5.07;;;6.10;99.90;;;;;;5077026;28;20299;-79
2023/01/10 08:32:40;;;;;;;29.20;4.78;;;6.10;99.90;;;;;;5059705;28;20446;-78
2023/01/10 08:35:06;;;;;;;25.23;4.87;;;6.10;99.90;;;;;;5076981;28;20136;-78
2023/01/10 08:37:32;;;;;;;28.80;5.43;;;6.10;99.90;;;;;;5076971;28;20056;-78
2023/01/10 08:39:58;;;;;;;36.57;5.13;;;6.10;99.90;;;;;;5076860;28;20285;-80
2023/01/10 08:42:23;;;;;;;38.53;6.77;;;6.10;99.90;;;;;;5076839;28;20098;-79
2023/01/10 08:44:49;;;;;;;29.50;6.57;;;6.10;99.90;;;;;;5076783;28;20055;-79
2023/01/10 08:47:15;;;;;;;26.87;5.60;;;6.10;99.90;;;;;;5077300;28;20045;-78
2023/01/10 08:49:41;;;;;;;30.48;5.05;;;6.10;99.90;;;;;;5058938;28;20053;-81
2023/01/10 08:52:07;;;;;;;33.93;5.50;;;6.10;99.90;;;;;;5077135;28;20143;-79
2023/01/10 08:54:33;;;;;;;33.67;5.87;;;6.10;99.90;;;;;;5059239;28;20067;-80
2023/01/10 08:56:59;;;;;;;38.27;6.17;;;6.20;99.90;;;;;;5059231;28;20396;-79
2023/01/10 08:59:25;;;;;;;23.20;4.53;;;6.20;99.90;;;;;;5043114;28;20290;-80
2023/01/10 09:01:50;;;;;;;31.60;5.97;;;6.30;99.90;;;;;;5076578;28;20477;-79
2023/01/10 09:04:16;;;;;;;31.17;5.50;;;6.30;99.90;;;;;;5042130;28;20109;-78
2023/01/10 09:06:42;;;;;;;25.87;4.83;;;6.40;99.90;;;;;;5058776;28;20381;-80
2023/01/10 09:09:08;;;;;;;24.83;4.70;;;6.50;99.90;;;;;;5055269;28;20318;-81
2023/01/10 09:11:34;;;;;;;23.77;4.13;;;6.50;99.90;;;;;;5056287;28;20052;-80
2023/01/10 09:14:00;;;;;;;23.00;4.53;;;6.60;99.90;;;;;;5056354;28;20413;-80
2023/01/10 09:16:26;;;;;;;17.00;4.77;;;6.60;99.90;;;;;;5056279;28;20291;-79
2023/01/10 09:18:52;;;;;;;22.43;3.97;;;6.70;99.90;;;;;;5056168;28;20044;-79
2023/01/10 09:21:18;;;;;;;23.13;4.43;;;6.70;99.90;;;;;;5055481;28;20059;-80
2023/01/10 09:23:44;;;;;;;22.67;4.30;;;6.80;99.90;;;;;;5056227;28;20146;-80
2023/01/10 09:26:09;;;;;;;21.00;3.50;;;6.80;99.90;;;;;;5056089;28;20295;-78
2023/01/10 09:28:35;;;;;;;21.70;4.77;;;6.80;99.90;;;;;;5055724;28;20044;-79
2023/01/10 09:31:03;;;;;;;34.87;4.37;;;6.90;99.90;;;;;;5056484;28;20037;-78
2023/01/10 09:33:29;;;;;;;22.63;3.77;;;6.90;99.90;;;;;;5055950;28;20045;-78
2023/01/10 09:35:57;;;;;;;21.80;3.80;;;6.90;99.90;;;;;;5055877;28;20283;-76
2023/01/10 09:38:23;;;;;;;24.43;4.80;;;7.00;99.90;;;;;;5055416;28;20291;-77
2023/01/10 09:41:32;;;;;;;18.67;3.70;;;7.00;99.90;;;;;;5055309;28;20347;-77
2023/01/10 09:44:02;;;;;;;23.00;4.27;;;7.00;99.90;;;;;;5055776;28;20850;-77
2023/01/10 09:46:48;;;;;;;29.30;5.43;;;7.10;99.90;;;;;;5054789;28;20775;-77
2023/01/10 09:49:40;;;;;;;27.17;4.80;;;7.10;99.90;;;;;;5056163;28;20282;-77
2023/01/10 09:52:15;;;;;;;28.17;5.27;;;7.10;99.90;;;;;;5055772;28;20768;-75
2023/01/10 09:54:42;;;;;;;;;;;7.10;99.90;;;;;;5056033;28;20283;-76
2023/01/10 09:57:16;;;;;;;23.37;4.70;;;7.20;99.90;;;;;;5054286;28;20052;-76
2023/01/10 09:59:44;;;;;;;27.52;5.03;;;7.20;99.90;;;;;;5055251;28;20292;-76
2023/01/10 10:02:31;;;;;;;26.00;5.03;;;7.20;99.90;;;;;;5055373;28;20041;-76
2023/01/10 10:05:13;;;;;;;23.20;5.73;;;7.20;99.90;;;;;;5055302;28;20283;-77
2023/01/10 10:07:39;;;;;;;31.80;5.33;;;7.20;99.90;;;;;;5054709;28;20396;-76
2023/01/10 10:10:10;;;;;;;27.57;5.17;;;7.20;99.90;;;;;;5073425;28;20417;-77
2023/01/10 10:12:39;;;;;;;25.73;4.93;;;7.30;99.90;;;;;;5075750;28;20048;-80
2023/01/10 10:15:31;;;;;;;28.63;5.33;;;7.20;99.90;;;;;;5057186;28;20795;-76
2023/01/10 10:18:09;;;;;;;26.40;5.67;;;7.20;99.90;;;;;;5075680;28;20275;-76
2023/01/10 10:20:50;;;;;;;31.67;5.17;;;7.30;99.90;;;;;;5075072;28;20695;-76
2023/01/10 10:23:34;;;;;;;28.80;5.50;;;7.20;99.90;;;;;;5075059;28;20279;-75
2023/01/10 10:26:06;;;;;;;28.93;5.63;;;7.30;99.90;;;;;;5075433;28;20340;-77
2023/01/10 10:28:50;;;;;;;27.17;5.67;;;7.30;99.90;;;;;;5074890;28;20318;-77
2023/01/10 10:31:37;;;;;;;30.77;6.23;;;7.30;99.90;;;;;;5075301;28;20305;-75
2023/01/10 10:34:03;;;;;;;28.03;4.80;;;7.30;99.90;;;;;;5074734;28;20334;-80
2023/01/10 10:36:50;;;;;;;31.63;5.13;;;7.30;99.90;;;;;;5074672;28;20315;-80
2023/01/10 10:39:22;;;;;;;25.10;4.23;;;7.30;99.90;;;;;;5057072;28;20417;-82
2023/01/10 10:41:52;;;;;;;27.40;5.00;;;7.30;99.90;;;;;;5075440;28;20336;-82
2023/01/10 10:44:29;;;;;;;21.70;4.83;;;7.30;99.90;;;;;;5074552;28;20325;-82
2023/01/10 10:46:59;;;;;;;31.13;5.00;;;7.30;99.90;;;;;;5056590;28;20378;-83
2023/01/10 10:50:04;;;;;;;28.43;5.27;;;7.30;99.90;;;;;;5073314;28;20290;-81
2023/01/10 10:52:34;;;;;;;33.03;4.73;;;7.40;99.90;;;;;;5043301;28;20294;-86
2023/01/10 10:55:00;;;;;;;30.17;5.27;;;7.40;99.90;;;;;;5056448;28;20291;-78
2023/01/10 10:57:32;;;;;;;25.20;5.30;;;7.30;99.90;;;;;;5040046;28;20801;-78
2023/01/10 11:00:00;;;;;;;33.93;6.37;;;7.40;99.90;;;;;;5056599;28;20336;-77
2023/01/10 11:02:31;;;;;;;27.63;5.70;;;7.40;99.90;;;;;;5056545;28;20333;-78
2023/01/10 11:05:04;;;;;;;29.30;5.30;;;7.40;99.90;;;;;;5074114;28;20287;-78
2023/01/10 11:07:35;;;;;;;26.73;5.20;;;7.40;99.90;;;;;;5074139;28;20267;-78
2023/01/10 11:12:59;;;;;;;33.83;6.45;;;7.40;99.90;;;;;;5074839;28;20286;-78
2023/01/10 11:15:42;;;;;;;39.47;6.53;;;7.40;99.90;;;;;;5056049;28;20135;-78
2023/01/10 11:18:25;;;;;;;34.40;6.97;;;7.40;99.90;;;;;;5074217;28;20766;-78
2023/01/10 11:21:03;;;;;;;33.70;6.87;;;7.40;99.90;;;;;;5074342;28;20315;-78
2023/01/10 11:23:54;;;;;;;31.73;7.83;;;7.40;99.90;;;;;;5073817;28;20290;-78
2023/01/10 11:26:26;;;;;;;32.67;8.20;;;7.40;99.90;;;;;;5073739;28;20279;-78
2023/01/10 11:29:06;;;;;;;39.20;8.13;;;7.40;99.90;;;;;;5073709;28;20389;-86
2023/01/10 11:31:32;;;;;;;36.40;8.90;;;7.40;99.90;;;;;;5073622;28;20463;-77
2023/01/10 11:34:06;;;;;;;35.67;8.00;;;7.40;99.90;;;;;;5073578;28;20747;-78
2023/01/10 11:37:14;;;;;;;34.70;8.90;;;7.40;99.90;;;;;;5074429;28;20279;-78
2023/01/10 11:39:40;;;;;;;37.30;8.87;;;7.40;99.90;;;;;;5060429;28;20052;-77
2023/01/10 11:42:24;;;;;;;27.80;8.83;;;7.40;99.90;;;;;;5039307;28;20652;-78
2023/01/10 11:44:50;;;;;;;35.23;7.53;;;7.40;99.90;;;;;;5073550;28;20062;-77
2023/01/10 11:47:19;;;;;;;29.70;7.13;;;7.40;99.90;;;;;;5073187;28;20396;-78
2023/01/10 11:49:46;;;;;;;32.17;9.23;;;7.40;99.90;;;;;;5073441;28;20084;-78
2023/01/10 11:52:19;;;;;;;31.63;7.57;;;7.40;99.90;;;;;;5074055;28;20341;-84
2023/01/10 11:54:45;;;;;;;33.47;7.67;;;7.40;99.90;;;;;;5073643;28;20323;-78
2023/01/10 11:57:18;;;;;;;37.23;8.80;;;7.30;99.90;;;;;;5039188;28;20282;-77
2023/01/10 12:00:11;;;;;;;29.03;8.20;;;7.30;99.90;;;;;;5056391;28;20294;-79
2023/01/10 12:02:42;;;;;;;45.93;8.47;;;7.30;99.90;;;;;;5051444;28;20738;-78
2023/01/10 12:05:12;;;;;;;29.53;8.70;;;7.20;99.90;;;;;;5073300;28;20286;-78
2023/01/10 12:08:22;;;;;;;35.60;8.67;;;7.20;99.90;;;;;;5074151;28;20289;-78
2023/01/10 12:11:07;;;;;;;33.90;8.50;;;7.20;99.90;;;;;;4940313;28;20452;-78
2023/01/10 12:13:50;;;;;;;36.63;7.83;;;7.20;99.90;;;;;;5032934;28;20379;-78
2023/01/10 12:16:26;;;;;;;34.20;9.07;;;7.10;99.90;;;;;;5033336;28;20319;-77
2023/01/10 12:19:00;;;;;;;37.67;8.00;;;7.20;99.90;;;;;;5033003;28;20300;-77
2023/01/10 12:21:40;;;;;;;26.10;8.48;;;7.10;99.90;;;;;;5033448;28;20272;-88
2023/01/10 12:24:29;;;;;;;37.63;8.63;;;7.20;99.90;;;;;;5033231;28;20046;-80
2023/01/10 12:26:56;;;;;;;32.10;8.53;;;7.10;99.90;;;;;;5032371;28;20288;-78
2023/01/10 12:29:34;;;;;;;31.63;7.47;;;7.10;99.90;;;;;;5034146;28;20287;-84
2023/01/10 12:32:02;;;;;;;34.27;8.37;;;7.10;99.90;;;;;;5032008;28;20871;-84
2023/01/10 12:34:44;;;;;;;33.30;8.47;;;7.10;99.90;;;;;;5032233;28;20284;-83
2023/01/10 12:37:39;;;;;;;27.90;7.50;;;7.10;99.90;;;;;;5033432;28;20284;-83
2023/01/10 12:40:15;;;;;;;31.70;7.63;;;7.10;99.90;;;;;;5033026;28;20375;-81
2023/01/10 12:46:00;;;;;;;31.63;7.00;;;7.10;99.90;;;;;;5032558;28;20280;-80
2023/01/10 12:48:38;;;;;;;31.40;7.90;;;7.10;99.90;;;;;;5033063;28;20756;-77
2023/01/10 12:51:14;;;;;;;27.10;6.43;;;7.10;99.90;;;;;;5033417;28;20300;-80
2023/01/10 12:53:47;;;;;;;30.40;7.23;;;7.10;99.90;;;;;;4999424;28;20288;-80
2023/01/10 12:56:15;;;;;;;31.93;7.60;;;7.10;99.90;;;;;;5033002;28;20338;-80
2023/01/10 12:59:06;;;;;;;30.07;7.20;;;7.10;99.90;;;;;;5032526;28;20858;-79
2023/01/10 13:01:35;;;;;;;28.43;6.20;;;7.10;99.90;;;;;;5027327;28;20332;-79
2023/01/10 13:04:09;;;;;;;30.27;7.53;;;7.10;99.90;;;;;;5015158;28;20296;-79
2023/01/10 13:06:38;;;;;;;26.92;6.97;;;7.10;99.90;;;;;;5033292;28;20745;-79
2023/01/10 13:09:25;;;;;;;31.90;7.73;;;7.10;99.90;;;;;;5051263;28;20067;-80
2023/01/10 13:12:00;;;;;;;30.13;6.77;;;7.10;99.90;;;;;;5073663;28;20334;-79
2023/01/10 13:14:32;;;;;;;32.28;7.43;;;7.10;99.90;;;;;;5076427;28;20275;-79
2023/01/10 13:17:27;;;;;;;26.63;6.70;;;7.10;99.90;;;;;;5076063;28;20485;-79
2023/01/10 13:20:15;;;;;;;30.55;6.00;;;7.10;99.90;;;;;;5076804;28;20581;-79
2023/01/10 13:22:42;;;;;;;31.13;5.70;;;7.00;99.90;;;;;;5076976;28;20121;-79